Lake, Wisconsin
Current Conditions -  °F | °C
As of 10:35 PM on Saturday 25 Oct 2014 (Local Time) from KPBH Reporting Station
Clear Clear  
Wind Chill: 43°   Ceiling: Unl
Heat Index: 45°   Visibility: 10mi
Dew Point: 25°   Wind: 5mph
Humidity: 45%   Direction: 300°WNW
Pressure: 29.96"   Gusts: NA
Location:  45.9599°N, 90.2362°W
Report Text: KPBH 260335Z AUTO 30004KT 10SM CLR 07/M04 A2996 RMK AO2 T00741040
Loading
Personal Weather Stations






























Interactive Weather Map
Tropical Storm Tracking
New forecast layout! Learn more

10-Day Weather Forecast

Advertisements
Track Severe Weather on mobile